Time;durP1;ratioP1;P1;durP2;ratioP2;P2;SDS_P1;SDS_P2;PMS_P1;PMS_P2;Temp;Humidity;BMP_temperature;BMP_pressure;BME280_temperature;BME280_humidity;BME280_pressure;Samples;Min_cycle;Max_cycle;Signal;HPM_P1;HPM_P2
2022/03/22 00:00:14;;;;;;;8.10;5.57;;;;;;;11.87;32.79;98563.50;4920643;28;20195;-76
2022/03/22 00:02:40;;;;;;;10.13;6.15;;;;;;;11.84;34.56;98563.94;4929701;28;20265;-76
2022/03/22 00:05:05;;;;;;;11.43;6.30;;;;;;;11.76;34.06;98565.84;4936354;28;20220;-76
2022/03/22 00:07:31;;;;;;;10.25;6.78;;;;;;;11.75;33.81;98573.88;4924659;28;20463;-76
2022/03/22 00:09:56;;;;;;;9.05;5.32;;;;;;;11.66;33.47;98560.31;4941818;28;20279;-76
2022/03/22 00:12:22;;;;;;;10.90;6.05;;;;;;;11.62;34.71;98565.19;4910076;28;20287;-76
2022/03/22 00:14:48;;;;;;;9.25;5.88;;;;;;;11.53;35.03;98563.06;4926740;28;20165;-76
2022/03/22 00:17:13;;;;;;;9.27;5.57;;;;;;;11.43;35.75;98566.97;4913298;28;20709;-76
2022/03/22 00:19:39;;;;;;;10.32;5.93;;;;;;;11.31;35.59;98568.69;4926172;28;20227;-76
2022/03/22 00:22:04;;;;;;;14.82;7.68;;;;;;;11.23;35.89;98568.97;4931489;28;20182;-76
2022/03/22 00:24:29;;;;;;;10.18;6.65;;;;;;;11.25;34.99;98564.31;4931024;28;20648;-76
2022/03/22 00:26:55;;;;;;;10.65;7.22;;;;;;;11.28;35.04;98563.91;4945585;28;20215;-76
2022/03/22 00:29:20;;;;;;;9.90;6.03;;;;;;;11.25;34.78;98572.16;4945813;28;20180;-76
2022/03/22 00:31:46;;;;;;;11.70;6.53;;;;;;;11.06;36.39;98564.25;4930793;28;20262;-76
2022/03/22 00:34:13;;;;;;;9.95;6.50;;;;;;;11.04;37.08;98563.69;4961026;28;20293;-76
2022/03/22 00:36:41;;;;;;;9.43;5.85;;;;;;;10.81;37.34;98564.28;4924634;28;20254;-76
2022/03/22 00:39:07;;;;;;;8.75;6.18;;;;;;;10.83;37.66;98564.03;4961139;28;20242;-76
2022/03/22 00:41:32;;;;;;;8.55;5.78;;;;;;;10.74;38.39;98571.31;4918396;28;20617;-76
2022/03/22 00:43:58;;;;;;;9.82;6.20;;;;;;;10.61;38.71;98566.22;4946207;28;20258;-76
2022/03/22 00:46:23;;;;;;;9.30;6.15;;;;;;;10.57;39.25;98563.19;4927049;28;20286;-76
2022/03/22 00:48:49;;;;;;;8.90;6.35;;;;;;;10.48;38.97;98564.47;4945230;28;20622;-77
2022/03/22 00:51:15;;;;;;;10.40;6.43;;;;;;;10.37;39.09;98565.13;4913274;28;20368;-76
2022/03/22 00:53:41;;;;;;;11.32;6.45;;;;;;;10.26;39.64;98562.16;4925472;28;20225;-76
2022/03/22 00:56:07;;;;;;;10.85;6.22;;;;;;;10.16;40.26;98556.59;4962394;28;20180;-76
2022/03/22 00:58:32;;;;;;;10.98;6.50;;;;;;;10.13;40.60;98567.41;4928032;28;20294;-76
2022/03/22 01:00:58;;;;;;;11.43;6.75;;;;;;;10.08;40.47;98555.00;4944589;28;20555;-76
2022/03/22 01:03:23;;;;;;;10.30;6.35;;;;;;;10.04;40.04;98555.63;4938710;28;20540;-76
2022/03/22 01:05:50;;;;;;;11.45;5.88;;;;;;;9.92;39.54;98556.28;4937611;28;20200;-76
2022/03/22 01:08:16;;;;;;;10.10;6.57;;;;;;;9.83;39.81;98552.28;4922217;28;20182;-76
2022/03/22 01:10:44;;;;;;;10.68;6.07;;;;;;;9.76;40.31;98567.13;4946952;28;20273;-76
2022/03/22 01:13:11;;;;;;;11.80;6.78;;;;;;;9.70;40.49;98571.34;4927371;28;20609;-76
2022/03/22 01:15:37;;;;;;;11.18;6.38;;;;;;;9.67;40.71;98570.97;4928909;28;20341;-76
2022/03/22 01:18:06;;;;;;;9.48;6.15;;;;;;;9.64;41.09;98566.16;4946200;28;20152;-76
2022/03/22 01:20:40;;;;;;;11.23;6.75;;;;;;;9.45;40.95;98553.00;4943376;28;20162;-76
2022/03/22 01:23:09;;;;;;;11.77;6.57;;;;;;;9.57;40.72;98564.38;4916693;28;20781;-76
2022/03/22 01:25:37;;;;;;;10.20;6.13;;;;;;;9.57;40.41;98563.56;4944021;28;20223;-76
2022/03/22 01:28:05;;;;;;;10.32;7.07;;;;;;;9.63;41.55;98557.56;4913586;28;20165;-76
2022/03/22 01:30:31;;;;;;;10.60;6.70;;;;;;;9.65;41.17;98559.97;4928160;28;20625;-76
2022/03/22 01:32:56;;;;;;;11.13;6.30;;;;;;;9.68;41.26;98555.16;4911469;28;20189;-76
2022/03/22 01:35:23;;;;;;;12.00;6.57;;;;;;;9.65;40.87;98555.56;4946036;28;20158;-76
2022/03/22 01:37:49;;;;;;;10.93;6.68;;;;;;;9.65;41.50;98552.16;4911066;28;20615;-76
2022/03/22 01:40:19;;;;;;;10.82;6.65;;;;;;;9.52;41.23;98545.97;4940976;28;20257;-76
2022/03/22 01:42:44;;;;;;;10.88;7.18;;;;;;;9.57;40.95;98553.16;4924628;28;20275;-76
2022/03/22 01:45:10;;;;;;;9.23;5.78;;;;;;;9.54;40.81;98551.78;4932809;28;20615;-76
2022/03/22 01:47:40;;;;;;;8.98;6.18;;;;;;;9.39;41.06;98546.03;4932320;28;20224;-76
2022/03/22 01:50:08;;;;;;;12.30;6.88;;;;;;;9.46;40.83;98546.81;4929410;28;20637;-76
2022/03/22 01:52:34;;;;;;;11.50;5.85;;;;;;;9.45;40.93;98550.38;4939636;28;20722;-76
2022/03/22 01:55:00;;;;;;;9.38;5.85;;;;;;;9.45;40.85;98541.81;4945565;28;20313;-76
2022/03/22 01:57:26;;;;;;;10.55;6.72;;;;;;;9.41;40.66;98544.00;4945637;28;20253;-76
2022/03/22 01:59:51;;;;;;;9.25;5.60;;;;;;;9.42;40.66;98535.19;4943536;28;20268;-76
2022/03/22 02:07:45;;;;;;;9.32;5.70;;;;;;;9.41;40.57;98543.19;4916603;28;20180;-76
2022/03/22 02:10:11;;;;;;;11.05;5.95;;;;;;;9.38;39.07;98531.41;4928264;28;20211;-76
2022/03/22 02:12:36;;;;;;;9.00;5.47;;;;;;;9.38;39.82;98529.59;4914844;28;20590;-76
2022/03/22 02:15:03;;;;;;;8.52;5.40;;;;;;;9.45;39.29;98527.00;4928168;28;20203;-76
2022/03/22 02:17:28;;;;;;;11.90;5.82;;;;;;;9.47;39.48;98524.19;4928062;28;20207;-76
2022/03/22 02:19:54;;;;;;;9.32;5.57;;;;;;;9.42;39.65;98524.78;4910777;28;20158;-76
2022/03/22 02:22:22;;;;;;;9.73;5.20;;;;;;;9.37;40.13;98527.19;4942072;28;20175;-76
2022/03/22 02:24:47;;;;;;;8.23;5.30;;;;;;;9.36;39.83;98525.63;4915095;28;20212;-76
2022/03/22 02:27:13;;;;;;;8.52;6.07;;;;;;;9.23;40.64;98521.22;4914621;28;20196;-76
2022/03/22 02:29:38;;;;;;;9.50;6.78;;;;;;;9.11;40.33;98512.44;4915142;28;20213;-76
2022/03/22 02:32:07;;;;;;;8.68;6.07;;;;;;;9.00;41.23;98513.88;4931546;28;20275;-76
2022/03/22 02:34:36;;;;;;;10.27;6.30;;;;;;;8.91;41.31;98517.66;4928016;28;20226;-76
2022/03/22 02:37:03;;;;;;;9.38;5.70;;;;;;;8.88;41.60;98520.66;4931175;28;20775;-76
2022/03/22 02:39:28;;;;;;;9.13;6.10;;;;;;;8.86;41.58;98517.44;4944230;28;20276;-76
2022/03/22 02:41:54;;;;;;;9.77;6.40;;;;;;;8.85;41.40;98518.47;4943371;28;20401;-76
2022/03/22 02:44:20;;;;;;;11.75;6.32;;;;;;;8.76;42.25;98520.47;4927164;28;20189;-76
2022/03/22 02:46:46;;;;;;;9.13;5.93;;;;;;;8.65;42.19;98524.44;4924031;28;20209;-76
2022/03/22 02:49:12;;;;;;;10.02;6.30;;;;;;;8.59;42.85;98517.44;4926492;28;20637;-76
2022/03/22 02:51:38;;;;;;;9.98;6.40;;;;;;;8.54;42.81;98522.44;4937221;28;20200;-76
2022/03/22 02:54:04;;;;;;;10.30;6.70;;;;;;;8.51;42.97;98525.41;4953138;28;20262;-79
2022/03/22 02:56:30;;;;;;;9.65;5.57;;;;;;;8.45;42.54;98521.81;4945293;28;20562;-76
2022/03/22 02:58:55;;;;;;;11.27;6.20;;;;;;;8.36;42.49;98516.00;4942837;28;20548;-76
2022/03/22 03:01:20;;;;;;;11.50;6.50;;;;;;;8.32;43.54;98527.72;4943854;28;20225;-76
2022/03/22 03:03:46;;;;;;;9.27;5.75;;;;;;;8.25;43.04;98519.94;4923901;28;20294;-76
2022/03/22 03:06:12;;;;;;;9.68;6.00;;;;;;;8.24;42.42;98520.94;4942073;28;20254;-76
2022/03/22 03:08:37;;;;;;;8.55;5.40;;;;;;;8.17;43.12;98522.69;4943581;28;20265;-76
2022/03/22 03:11:03;;;;;;;9.43;5.75;;;;;;;8.10;43.54;98528.88;4932333;28;20236;-76
2022/03/22 03:14:38;;;;;;;9.38;5.70;;;;;;;8.04;43.07;98528.66;4940798;28;20258;-76
2022/03/22 03:16:13;;;;;;;9.77;5.95;;;;;;;7.98;43.16;98524.22;4945512;28;20254;-76
2022/03/22 03:18:39;;;;;;;10.15;6.00;;;;;;;7.95;43.11;98529.81;4943865;28;20361;-76
2022/03/22 03:21:04;;;;;;;8.10;4.95;;;;;;;7.95;42.45;98535.00;4941080;28;20246;-76
2022/03/22 03:23:29;;;;;;;8.88;5.03;;;;;;;7.90;42.23;98529.59;4933606;28;20284;-76
2022/03/22 03:25:54;;;;;;;9.63;5.55;;;;;;;7.84;42.29;98520.78;4935991;28;20294;-76
2022/03/22 03:28:20;;;;;;;9.95;5.95;;;;;;;7.84;43.10;98530.38;4931181;28;20239;-76
2022/03/22 03:30:45;;;;;;;9.80;6.07;;;;;;;7.76;43.11;98528.75;4938074;28;20193;-76
2022/03/22 03:33:11;;;;;;;8.75;5.45;;;;;;;7.72;42.95;98540.47;4921722;28;20200;-76
2022/03/22 03:35:36;;;;;;;8.38;6.03;;;;;;;7.61;42.97;98530.66;4941338;28;20264;-76
2022/03/22 03:38:01;;;;;;;9.68;5.40;;;;;;;7.55;43.65;98534.81;4914248;28;20250;-76
2022/03/22 03:41:53;;;;;;;12.73;6.45;;;;;;;7.48;43.60;98545.13;4930415;28;20182;-76
2022/03/22 03:43:12;;;;;;;10.40;6.13;;;;;;;7.44;43.09;98540.53;4943924;28;20172;-76
2022/03/22 03:48:21;;;;;;;11.40;7.63;;;;;;;7.48;43.88;98533.97;4950899;28;20645;-76
2022/03/22 03:50:47;;;;;;;10.57;6.15;;;;;;;7.43;43.82;98542.31;4935672;28;20241;-76
2022/03/22 03:53:12;;;;;;;10.60;5.75;;;;;;;7.36;43.63;98546.66;4904601;28;20316;-76
2022/03/22 03:55:37;;;;;;;8.23;5.30;;;;;;;7.27;44.08;98546.00;4926468;28;20161;-76
2022/03/22 03:58:03;;;;;;;12.07;5.78;;;;;;;7.10;44.42;98553.25;4946942;28;20289;-76
2022/03/22 04:00:28;;;;;;;11.20;6.25;;;;;;;6.95;45.68;98544.75;4911700;28;20208;-76
2022/03/22 04:02:54;;;;;;;10.95;6.50;;;;;;;6.86;45.39;98548.47;4962609;28;20207;-76
2022/03/22 04:05:19;;;;;;;9.45;6.03;;;;;;;6.78;44.79;98551.19;4929309;28;20279;-76
2022/03/22 04:07:45;;;;;;;11.15;6.28;;;;;;;6.73;45.26;98547.38;4927511;28;20351;-76
2022/03/22 04:10:10;;;;;;;10.00;6.00;;;;;;;6.72;45.61;98544.97;4924040;28;20266;-76
2022/03/22 04:12:42;;;;;;;10.95;6.45;;;;;;;6.52;45.90;98542.97;4936613;28;20200;-76
2022/03/22 04:15:08;;;;;;;9.82;6.32;;;;;;;6.52;45.83;98545.56;4929858;28;20199;-76
2022/03/22 04:17:34;;;;;;;10.48;6.32;;;;;;;6.50;46.37;98544.94;4929410;28;20076;-76
2022/03/22 04:20:00;;;;;;;11.68;6.75;;;;;;;6.39;46.36;98542.84;4925430;28;20177;-76
2022/03/22 04:22:25;;;;;;;11.55;6.57;;;;;;;6.34;45.83;98540.00;4926273;28;20231;-76
2022/03/22 04:24:51;;;;;;;9.30;6.38;;;;;;;6.25;46.51;98538.50;4914212;28;20236;-76
2022/03/22 04:32:44;;;;;;;10.52;5.40;;;;;;;6.13;46.07;98541.56;4948610;28;20230;-76
2022/03/22 04:35:11;;;;;;;11.45;6.10;;;;;;;6.05;46.22;98538.28;4930138;28;20188;-76
2022/03/22 04:37:37;;;;;;;10.57;6.38;;;;;;;6.06;46.54;98540.69;4930152;28;20206;-79
2022/03/22 04:40:03;;;;;;;10.18;6.05;;;;;;;6.02;46.25;98544.63;4966092;28;20284;-79
2022/03/22 04:42:29;;;;;;;13.95;6.88;;;;;;;5.94;46.84;98548.06;4949165;28;20153;-79
2022/03/22 04:44:54;;;;;;;8.57;5.28;;;;;;;6.01;46.93;98550.78;4943419;28;20611;-79
2022/03/22 04:47:20;;;;;;;11.65;6.28;;;;;;;6.02;46.78;98549.00;4950775;28;20275;-79
2022/03/22 04:49:45;;;;;;;11.50;6.40;;;;;;;5.96;47.05;98545.34;4948165;28;20325;-79
2022/03/22 04:57:38;;;;;;;11.82;6.53;;;;;;;5.90;47.13;98562.34;4949413;28;20287;-78
2022/03/22 05:00:05;;;;;;;10.90;6.55;;;;;;;5.87;46.60;98552.34;4948285;28;20265;-78
2022/03/22 05:02:31;;;;;;;12.65;6.78;;;;;;;5.91;46.63;98561.38;4931593;28;20246;-78
2022/03/22 05:05:00;;;;;;;14.30;6.80;;;;;;;5.92;46.46;98554.41;4940691;28;20293;-79
2022/03/22 05:07:26;;;;;;;12.25;6.43;;;;;;;6.02;46.00;98559.34;4913857;28;21068;-79
2022/03/22 05:09:51;;;;;;;12.20;7.22;;;;;;;6.03;46.56;98553.97;4928244;28;20287;-79
2022/03/22 05:12:17;;;;;;;11.98;6.93;;;;;;;6.09;45.81;98557.63;4930990;28;20200;-79
2022/03/22 05:14:43;;;;;;;12.35;6.65;;;;;;;6.08;45.98;98556.81;4964867;28;20195;-78
2022/03/22 05:17:11;;;;;;;11.50;6.05;;;;;;;6.09;46.29;98560.22;4948153;28;20665;-78
2022/03/22 05:19:37;;;;;;;13.23;7.25;;;;;;;6.10;46.03;98552.28;4932082;28;20207;-78
2022/03/22 05:22:02;;;;;;;9.88;6.20;;;;;;;6.16;45.38;98558.50;4946230;28;20657;-78
2022/03/22 05:24:28;;;;;;;9.55;5.72;;;;;;;6.17;45.01;98558.34;4949741;28;20186;-78
2022/03/22 05:26:54;;;;;;;11.93;6.18;;;;;;;6.17;45.07;98560.13;4929920;28;20302;-78
2022/03/22 05:29:21;;;;;;;11.95;6.63;;;;;;;6.13;45.58;98561.44;4933197;28;20098;-78
2022/03/22 05:31:46;;;;;;;10.73;6.10;;;;;;;6.11;45.61;98564.22;4926619;28;20196;-78
2022/03/22 05:34:12;;;;;;;14.15;6.28;;;;;;;6.06;44.91;98566.53;4932609;28;20196;-78
2022/03/22 05:36:37;;;;;;;14.27;6.47;;;;;;;6.01;45.52;98563.69;4920515;28;20191;-78
2022/03/22 05:39:03;;;;;;;11.68;6.68;;;;;;;5.90;47.22;98567.50;4926033;28;20244;-78
2022/03/22 05:41:28;;;;;;;12.32;6.38;;;;;;;5.82;47.47;98568.41;4928101;28;20618;-78
2022/03/22 05:43:53;;;;;;;13.15;7.18;;;;;;;5.73;47.66;98566.91;4938247;28;20157;-78
2022/03/22 05:46:19;;;;;;;11.50;6.22;;;;;;;5.75;47.78;98575.25;4929425;28;20250;-78
2022/03/22 05:48:47;;;;;;;14.57;7.43;;;;;;;5.74;48.10;98567.69;4922015;28;20189;-78
2022/03/22 05:51:14;;;;;;;12.00;6.78;;;;;;;5.79;47.66;98570.53;4927388;28;20209;-78
2022/03/22 05:53:39;;;;;;;12.43;6.95;;;;;;;5.84;48.37;98567.44;4931489;28;20106;-78
2022/03/22 05:56:04;;;;;;;13.77;6.88;;;;;;;5.90;47.80;98571.91;4930480;28;20744;-78
2022/03/22 05:58:30;;;;;;;12.85;7.65;;;;;;;5.92;48.38;98575.88;4935141;28;20204;-78
2022/03/22 06:00:55;;;;;;;13.85;7.72;;;;;;;5.87;49.33;98574.81;4930674;28;20295;-78
2022/03/22 06:03:21;;;;;;;12.95;7.70;;;;;;;5.88;47.62;98579.00;4948343;28;20652;-78
2022/03/22 06:05:49;;;;;;;12.93;7.30;;;;;;;5.86;47.32;98580.97;4929205;28;20110;-78
2022/03/22 06:08:15;;;;;;;14.98;7.25;;;;;;;5.94;48.19;98575.72;4946489;28;20720;-78
2022/03/22 06:10:40;;;;;;;11.30;5.82;;;;;;;6.03;47.20;98574.66;4930794;28;20263;-78
2022/03/22 06:13:05;;;;;;;13.40;6.90;;;;;;;6.19;45.46;98571.88;4928142;28;20256;-78
2022/03/22 06:15:31;;;;;;;10.48;6.45;;;;;;;6.18;46.60;98570.25;4926658;28;20201;-78
2022/03/22 06:18:00;;;;;;;14.00;7.45;;;;;;;6.25;47.80;98574.72;4926812;28;20215;-78
2022/03/22 06:20:33;;;;;;;10.75;5.43;;;;;;;6.30;47.73;98569.81;4944991;28;20445;-78
2022/03/22 06:23:00;;;;;;;13.98;7.93;;;;;;;6.47;47.27;98570.38;4926829;28;20642;-78
2022/03/22 06:25:25;;;;;;;16.00;8.75;;;;;;;6.58;48.83;98569.91;4948286;28;20259;-78
2022/03/22 06:27:53;;;;;;;14.30;7.95;;;;;;;6.77;47.61;98573.69;4930535;28;20278;-78
2022/03/22 06:30:19;;;;;;;13.98;7.40;;;;;;;6.88;48.67;98575.75;4946236;28;20201;-78
2022/03/22 06:32:50;;;;;;;12.15;7.45;;;;;;;6.84;48.45;98582.31;4923400;28;20224;-78
2022/03/22 06:35:18;;;;;;;10.88;7.45;;;;;;;7.19;46.90;98582.41;4946931;28;20269;-78
2022/03/22 06:37:44;;;;;;;13.48;7.10;;;;;;;7.26;46.83;98579.84;4914641;28;20211;-78
2022/03/22 06:40:10;;;;;;;15.05;7.93;;;;;;;7.40;46.84;98580.75;4934307;28;20138;-78
2022/03/22 06:42:36;;;;;;;11.75;7.13;;;;;;;7.60;46.55;98584.28;4947462;28;20211;-78
2022/03/22 06:45:03;;;;;;;15.50;7.72;;;;;;;7.81;46.06;98580.00;4946833;28;20481;-78
2022/03/22 06:47:30;;;;;;;12.25;7.75;;;;;;;7.97;46.18;98589.25;4941763;28;20373;-78
2022/03/22 06:49:55;;;;;;;11.63;7.10;;;;;;;8.15;45.37;98580.97;4946615;28;20200;-78
2022/03/22 06:52:21;;;;;;;13.55;7.80;;;;;;;8.30;45.33;98584.22;4913700;28;20207;-78
2022/03/22 06:54:46;;;;;;;13.80;8.80;;;;;;;8.37;45.26;98579.06;4930720;28;20333;-78
2022/03/22 06:57:11;;;;;;;16.45;10.35;;;;;;;8.54;44.15;98584.72;4940050;28;20191;-78
2022/03/22 06:59:37;;;;;;;19.85;11.52;;;;;;;8.65;44.20;98580.75;4917125;28;20102;-78
2022/03/22 07:02:04;;;;;;;16.95;10.93;;;;;;;8.82;44.10;98579.38;4931079;28;20211;-78
2022/03/22 07:04:30;;;;;;;16.20;9.63;;;;;;;8.95;43.60;98578.59;4930952;28;20338;-78
2022/03/22 07:06:56;;;;;;;16.73;9.32;;;;;;;8.96;43.56;98578.41;4913117;28;20442;-78
2022/03/22 07:09:22;;;;;;;17.63;10.38;;;;;;;8.92;43.09;98584.19;4930562;28;20240;-78
2022/03/22 07:11:49;;;;;;;13.05;9.40;;;;;;;8.93;43.11;98583.22;4932472;28;20194;-78
2022/03/22 07:14:16;;;;;;;15.13;9.60;;;;;;;9.31;42.72;98586.00;4928376;28;20212;-78
2022/03/22 07:16:42;;;;;;;15.70;9.30;;;;;;;9.62;42.44;98581.19;4935970;28;20603;-78
2022/03/22 07:19:07;;;;;;;17.75;9.35;;;;;;;9.92;42.05;98590.09;4936287;28;20200;-78
2022/03/22 07:21:32;;;;;;;16.63;9.85;;;;;;;10.15;41.84;98591.44;4958695;28;20215;-78
2022/03/22 07:23:58;;;;;;;12.40;9.35;;;;;;;10.43;41.46;98590.34;4914826;28;20188;-76
2022/03/22 07:26:23;;;;;;;16.88;9.20;;;;;;;10.65;41.15;98601.22;4927317;28;20308;-78
2022/03/22 07:28:48;;;;;;;15.95;8.95;;;;;;;10.81;40.88;98594.72;4917317;28;20211;-78
2022/03/22 07:31:14;;;;;;;16.40;9.63;;;;;;;10.93;40.10;98600.06;4947507;28;20281;-78
2022/03/22 07:33:39;;;;;;;15.10;9.77;;;;;;;11.16;40.21;98586.47;4935711;28;20246;-78
2022/03/22 07:36:05;;;;;;;16.27;10.45;;;;;;;11.30;39.62;98597.59;4937857;28;20277;-78
2022/03/22 07:38:30;;;;;;;16.13;9.52;;;;;;;11.67;39.26;98590.63;4954203;28;20299;-78
2022/03/22 07:40:56;;;;;;;15.98;9.75;;;;;;;11.83;38.85;98585.84;4919548;28;20189;-78
2022/03/22 07:43:21;;;;;;;18.02;10.65;;;;;;;12.05;38.36;98594.88;4952668;28;20186;-78
2022/03/22 07:45:46;;;;;;;14.57;9.73;;;;;;;11.97;38.70;98602.97;4971197;28;20196;-78
2022/03/22 07:48:12;;;;;;;17.35;11.00;;;;;;;12.00;38.17;98599.94;4948086;28;20076;-78
2022/03/22 07:53:21;;;;;;;17.25;10.27;;;;;;;12.20;37.92;98596.28;4951069;28;20141;-77
2022/03/22 07:55:47;;;;;;;13.38;8.93;;;;;;;12.37;37.01;98599.88;4939808;28;20642;-77
2022/03/22 07:58:12;;;;;;;16.92;10.00;;;;;;;12.54;36.65;98605.31;4938462;28;20176;-78
2022/03/22 08:00:39;;;;;;;15.68;9.60;;;;;;;12.73;35.62;98603.44;4938578;28;20264;-77
2022/03/22 08:03:08;;;;;;;14.50;9.07;;;;;;;12.89;35.91;98596.78;4954652;28;20170;-78
2022/03/22 08:05:35;;;;;;;15.65;10.02;;;;;;;12.89;35.27;98599.41;4954933;28;20258;-78
2022/03/22 08:08:01;;;;;;;14.27;9.07;;;;;;;12.95;34.80;98600.31;4935160;28;20279;-77
2022/03/22 08:10:26;;;;;;;15.00;9.27;;;;;;;13.12;34.50;98596.03;4937900;28;20169;-76
2022/03/22 08:12:52;;;;;;;15.35;9.30;;;;;;;13.02;34.42;98596.59;4965231;28;20278;-75
2022/03/22 08:15:18;;;;;;;15.98;9.68;;;;;;;13.03;34.37;98597.38;4933107;28;20368;-75
2022/03/22 08:17:43;;;;;;;16.35;10.05;;;;;;;13.03;34.17;98600.00;4916175;28;20287;-75
2022/03/22 08:20:11;;;;;;;15.55;9.70;;;;;;;13.14;33.96;98601.81;4947668;28;20284;-75
2022/03/22 08:22:52;;;;;;;13.77;8.93;;;;;;;13.23;33.85;98604.91;4931168;28;20641;-75
2022/03/22 08:25:22;;;;;;;14.27;8.90;;;;;;;13.66;33.08;98594.16;4964528;28;20601;-76
2022/03/22 08:27:48;;;;;;;12.93;8.32;;;;;;;13.90;32.78;98604.59;4948231;28;20308;-75
2022/03/22 08:30:13;;;;;;;13.10;8.60;;;;;;;13.82;32.44;98591.84;4928798;28;20275;-76
2022/03/22 08:32:40;;;;;;;13.40;9.20;;;;;;;14.19;32.39;98597.59;4931897;28;20139;-75
2022/03/22 08:35:06;;;;;;;13.35;9.05;;;;;;;14.33;31.59;98595.50;4932279;28;20277;-76
2022/03/22 08:37:32;;;;;;;14.68;9.52;;;;;;;14.42;31.94;98591.44;4928721;28;20181;-75
2022/03/22 08:39:57;;;;;;;14.27;9.95;;;;;;;14.39;31.33;98589.31;4965515;28;20767;-75
2022/03/22 08:42:23;;;;;;;13.75;8.93;;;;;;;14.63;31.12;98585.81;4916309;28;20255;-75
2022/03/22 08:44:48;;;;;;;13.65;8.07;;;;;;;14.69;31.38;98592.75;4951810;28;20315;-76
2022/03/22 08:47:13;;;;;;;12.85;9.48;;;;;;;15.16;30.74;98598.53;4927779;28;20294;-76
2022/03/22 08:49:40;;;;;;;14.00;10.57;;;;;;;15.02;30.91;98597.22;4944512;28;20278;-75
2022/03/22 08:52:06;;;;;;;11.80;8.95;;;;;;;15.29;30.68;98594.78;4917669;28;20178;-76
2022/03/22 08:54:32;;;;;;;16.00;9.70;;;;;;;15.32;30.46;98598.75;4929057;28;20211;-75
2022/03/22 08:56:57;;;;;;;12.73;9.75;;;;;;;15.61;30.68;98603.88;4937752;28;20262;-76
2022/03/22 08:59:22;;;;;;;12.73;9.40;;;;;;;15.28;29.85;98597.63;4959449;28;20187;-75
2022/03/22 09:01:48;;;;;;;12.75;8.80;;;;;;;15.09;30.23;98595.25;4932134;28;20209;-77
2022/03/22 09:06:57;;;;;;;12.77;8.63;;;;;;;15.94;29.60;98602.22;4949524;28;20217;-77
2022/03/22 09:09:23;;;;;;;13.60;8.93;;;;;;;16.29;28.75;98596.59;4945689;28;20621;-76
2022/03/22 09:11:49;;;;;;;15.63;9.23;;;;;;;16.01;29.92;98597.59;4927397;28;20630;-76
2022/03/22 09:14:14;;;;;;;11.85;8.45;;;;;;;16.50;29.45;98592.34;4932460;28;20207;-76
2022/03/22 09:16:40;;;;;;;12.13;9.25;;;;;;;16.54;29.56;98580.31;4927196;28;20850;-76
2022/03/22 09:19:05;;;;;;;13.32;8.75;;;;;;;16.60;29.56;98586.41;4928844;28;20794;-76
2022/03/22 09:21:30;;;;;;;12.23;9.45;;;;;;;16.70;29.26;98591.75;4925423;28;20192;-76
2022/03/22 09:23:56;;;;;;;14.15;9.60;;;;;;;16.80;28.52;98591.06;4937438;28;20207;-75
2022/03/22 09:26:21;;;;;;;12.95;9.27;;;;;;;16.67;28.68;98590.44;4916067;28;20633;-75
2022/03/22 09:28:52;;;;;;;12.52;9.20;;;;;;;16.62;28.23;98584.31;4928351;28;20704;-76
2022/03/22 09:31:17;;;;;;;12.50;9.75;;;;;;;16.59;28.04;98587.47;4936524;28;20165;-76
2022/03/22 09:33:43;;;;;;;13.80;9.57;;;;;;;16.91;28.24;98587.50;4915040;28;20199;-76
2022/03/22 09:36:08;;;;;;;14.73;10.10;;;;;;;16.93;27.55;98584.63;4942349;28;20219;-76
2022/03/22 09:38:33;;;;;;;13.48;9.98;;;;;;;17.12;28.48;98577.94;4944437;28;20282;-76
2022/03/22 09:41:00;;;;;;;12.85;9.27;;;;;;;17.42;27.88;98577.34;4941756;28;20278;-76
2022/03/22 09:43:27;;;;;;;13.50;8.48;;;;;;;17.45;27.24;98583.16;4925349;28;20321;-76
2022/03/22 09:45:52;;;;;;;14.88;10.13;;;;;;;17.52;27.51;98589.78;4915227;28;20177;-75
2022/03/22 09:48:18;;;;;;;14.20;9.80;;;;;;;17.47;27.44;98589.75;4944328;28;20192;-75
2022/03/22 09:53:28;;;;;;;15.73;9.63;;;;;;;17.69;26.66;98592.25;4944136;28;20237;-76
2022/03/22 09:55:54;;;;;;;12.68;9.98;;;;;;;17.82;26.02;98587.56;4944609;28;20282;-75
2022/03/22 09:58:19;;;;;;;12.05;9.30;;;;;;;17.58;26.46;98590.59;4944148;28;20597;-76
2022/03/22 10:00:45;;;;;;;15.50;9.60;;;;;;;17.78;26.20;98585.44;4915072;28;20158;-76
2022/03/22 10:03:18;;;;;;;14.23;9.93;;;;;;;18.10;24.58;98581.13;4914898;28;20220;-76
2022/03/22 10:05:45;;;;;;;12.70;9.05;;;;;;;17.83;25.53;98583.88;4957029;28;20750;-75
2022/03/22 10:08:11;;;;;;;12.75;9.15;;;;;;;17.83;24.77;98583.88;4910655;28;20655;-76
2022/03/22 10:10:52;;;;;;;13.73;9.65;;;;;;;17.54;25.95;98586.88;4928204;28;20175;-75
2022/03/22 10:13:17;;;;;;;13.43;9.50;;;;;;;17.96;25.34;98576.31;4917472;28;20173;-75
2022/03/22 10:15:43;;;;;;;12.48;9.65;;;;;;;18.15;24.72;98575.88;4927568;28;20562;-77
2022/03/22 10:18:10;;;;;;;13.63;9.27;;;;;;;17.81;25.06;98576.25;4942256;28;20286;-75
2022/03/22 10:20:38;;;;;;;12.13;9.18;;;;;;;17.57;24.96;98573.22;4943632;28;20179;-75
2022/03/22 10:23:06;;;;;;;12.82;9.32;;;;;;;18.17;24.43;98575.63;4923137;28;20695;-76
2022/03/22 10:25:33;;;;;;;12.60;9.57;;;;;;;17.89;24.82;98580.22;4943675;28;20289;-75
2022/03/22 10:28:03;;;;;;;11.40;8.85;;;;;;;18.15;24.90;98573.25;4916483;28;20199;-75
2022/03/22 10:30:29;;;;;;;13.45;8.93;;;;;;;18.13;25.11;98567.44;4943109;28;20196;-77
2022/03/22 10:32:55;;;;;;;12.43;9.15;;;;;;;18.34;25.00;98566.41;4926809;28;20618;-75
2022/03/22 10:35:24;;;;;;;13.82;9.10;;;;;;;18.83;23.58;98564.41;4914495;28;20172;-76
2022/03/22 10:37:54;;;;;;;12.63;9.20;;;;;;;19.22;22.86;98561.22;4945063;28;20164;-76
2022/03/22 10:40:23;;;;;;;12.68;8.70;;;;;;;19.25;23.77;98558.03;4924162;28;20204;-76
2022/03/22 10:42:50;;;;;;;12.02;8.73;;;;;;;19.35;23.50;98554.59;4937739;28;20380;-76
2022/03/22 10:45:16;;;;;;;12.27;8.90;;;;;;;19.52;24.12;98552.44;4925482;28;20257;-76
2022/03/22 10:47:41;;;;;;;13.85;8.98;;;;;;;18.98;23.64;98561.75;4908389;28;20196;-76
2022/03/22 10:50:07;;;;;;;12.68;8.52;;;;;;;19.24;23.84;98556.44;4925940;28;20191;-76
2022/03/22 10:52:32;;;;;;;12.20;8.52;;;;;;;19.42;24.38;98553.25;4923290;28;20191;-76
2022/03/22 10:54:59;;;;;;;12.82;8.73;;;;;;;19.99;22.52;98553.84;4927387;28;20622;-77
2022/03/22 10:57:32;;;;;;;13.65;8.88;;;;;;;20.34;21.64;98546.81;4942766;28;20207;-77
2022/03/22 11:00:07;;;;;;;11.65;8.95;;;;;;;20.42;21.64;98547.28;4939440;28;20258;-76
2022/03/22 11:02:34;;;;;;;12.70;8.00;;;;;;;20.58;22.14;98544.25;4911302;28;20649;-76
2022/03/22 11:05:03;;;;;;;11.80;8.55;;;;;;;20.79;22.13;98549.44;4942824;28;20194;-76
2022/03/22 11:07:33;;;;;;;12.45;9.38;;;;;;;20.21;22.77;98552.69;4926647;28;20648;-76
2022/03/22 11:09:58;;;;;;;14.43;8.85;;;;;;;20.72;21.50;98546.31;4943442;28;20642;-76
2022/03/22 11:12:26;;;;;;;11.93;9.18;;;;;;;21.17;20.86;98549.63;4943255;28;20203;-77
2022/03/22 11:14:53;;;;;;;11.73;9.15;;;;;;;21.32;20.72;98535.44;4928449;28;20265;-76
2022/03/22 11:17:19;;;;;;;9.52;8.02;;;;;;;21.08;21.20;98533.56;4943667;28;20721;-77
2022/03/22 11:19:45;;;;;;;10.95;9.48;;;;;;;21.45;21.57;98533.97;4931984;28;20640;-77
2022/03/22 11:22:10;;;;;;;11.15;8.20;;;;;;;22.12;20.20;98527.88;4930527;28;20250;-77
2022/03/22 11:24:38;;;;;;;10.98;8.05;;;;;;;21.95;21.84;98526.53;4959934;28;20285;-76
2022/03/22 11:27:07;;;;;;;10.60;8.60;;;;;;;21.40;21.34;98529.50;4929719;28;20392;-76
2022/03/22 11:29:32;;;;;;;10.50;8.70;;;;;;;21.26;20.78;98525.97;4915311;28;20188;-76
2022/03/22 11:34:43;;;;;;;11.93;9.00;;;;;;;21.41;21.26;98520.50;4941005;28;20205;-78
2022/03/22 11:37:09;;;;;;;11.38;8.65;;;;;;;21.45;21.37;98513.56;4922672;28;20478;-76
2022/03/22 11:42:20;;;;;;;11.02;9.10;;;;;;;20.74;21.04;98523.78;4941097;28;20273;-76
2022/03/22 11:45:02;;;;;;;10.75;8.50;;;;;;;21.83;19.89;98507.56;4907352;28;20208;-77
2022/03/22 11:47:56;;;;;;;12.23;9.15;;;;;;;21.53;21.84;98506.88;4921602;28;20203;-77
2022/03/22 11:50:22;;;;;;;10.32;8.63;;;;;;;22.43;19.72;98501.69;4916143;28;20650;-77
2022/03/22 11:52:50;;;;;;;12.50;9.32;;;;;;;22.24;20.21;98501.69;4911061;28;20298;-76
2022/03/22 11:55:23;;;;;;;11.43;9.52;;;;;;;21.38;20.95;98505.16;4910940;28;20289;-77
2022/03/22 11:57:52;;;;;;;10.55;8.85;;;;;;;21.46;20.55;98509.06;4940937;28;20211;-76
2022/03/22 12:00:23;;;;;;;12.93;9.82;;;;;;;22.15;21.21;98500.78;4939185;28;20170;-77